createdAt,value
2018-11-05T00:01:19.090Z,21.07
2018-11-05T00:03:47.080Z,21.67
2018-11-05T00:06:15.036Z,22.23
2018-11-05T00:08:43.037Z,26.13
2018-11-05T00:11:12.765Z,20.90
2018-11-05T00:13:40.782Z,20.13
2018-11-05T00:16:09.312Z,25.00
2018-11-05T00:18:37.306Z,26.37
2018-11-05T00:21:05.268Z,22.93
2018-11-05T00:23:33.287Z,22.00
2018-11-05T00:26:02.232Z,25.63
2018-11-05T00:28:30.411Z,23.90
2018-11-05T00:30:58.375Z,22.53
2018-11-05T00:33:26.351Z,26.47
2018-11-05T00:35:54.289Z,26.93
2018-11-05T00:38:22.372Z,26.50
2018-11-05T00:40:50.330Z,23.83
2018-11-05T00:43:18.296Z,27.20
2018-11-05T00:45:46.260Z,25.93
2018-11-05T00:48:14.344Z,28.17
2018-11-05T00:50:42.335Z,27.93
2018-11-05T00:53:10.350Z,28.37
2018-11-05T00:55:38.676Z,26.83
2018-11-05T00:58:06.685Z,25.97
2018-11-05T01:00:34.637Z,29.47
2018-11-05T01:03:02.648Z,30.23
2018-11-05T01:05:30.644Z,32.67
2018-11-05T01:07:58.754Z,30.67
2018-11-05T01:10:26.794Z,31.23
2018-11-05T01:12:55.022Z,30.23
2018-11-05T01:15:23.061Z,34.77
2018-11-05T01:17:51.081Z,35.93
2018-11-05T01:20:19.055Z,33.63
2018-11-05T01:22:46.992Z,34.90
2018-11-05T01:25:15.019Z,33.00
2018-11-05T01:27:42.975Z,34.20
2018-11-05T01:30:12.648Z,34.40
2018-11-05T01:32:40.889Z,35.43
2018-11-05T01:35:10.535Z,33.30
2018-11-05T01:37:38.680Z,38.77
2018-11-05T01:40:08.798Z,38.03
2018-11-05T01:42:37.089Z,37.23
2018-11-05T01:45:06.176Z,44.50
2018-11-05T01:47:34.180Z,40.27
2018-11-05T01:50:02.372Z,39.80
2018-11-05T01:52:30.308Z,38.70
2018-11-05T01:54:58.348Z,35.90
2018-11-05T01:57:26.336Z,39.47
2018-11-05T01:59:54.328Z,38.73
2018-11-05T02:02:22.308Z,46.47
2018-11-05T02:04:50.314Z,43.80
2018-11-05T02:07:18.298Z,38.23
2018-11-05T02:09:46.277Z,42.50
2018-11-05T02:12:14.248Z,42.77
2018-11-05T02:14:42.273Z,38.03
2018-11-05T02:17:10.246Z,44.50
2018-11-05T02:19:38.400Z,42.50
2018-11-05T02:22:06.432Z,41.30
2018-11-05T02:24:34.438Z,41.23
2018-11-05T02:27:02.461Z,40.60
2018-11-05T02:29:30.556Z,40.50
2018-11-05T02:31:58.593Z,40.67
2018-11-05T02:34:26.631Z,42.80
2018-11-05T02:36:54.631Z,43.60
2018-11-05T02:39:22.754Z,49.70
2018-11-05T02:41:50.715Z,45.93
2018-11-05T02:44:18.747Z,47.60
2018-11-05T02:46:46.825Z,44.57
2018-11-05T02:49:14.900Z,44.83
2018-11-05T02:51:42.925Z,43.07
2018-11-05T02:54:10.957Z,47.30
2018-11-05T02:56:39.004Z,46.90
2018-11-05T02:59:07.169Z,43.37
2018-11-05T03:01:35.184Z,45.47
2018-11-05T03:04:03.224Z,48.37
2018-11-05T03:06:31.361Z,43.53
2018-11-05T03:08:59.274Z,40.80
2018-11-05T03:11:27.404Z,39.93
2018-11-05T03:13:55.376Z,41.13
2018-11-05T03:16:23.346Z,42.43
2018-11-05T03:18:51.330Z,43.13
2018-11-05T03:21:19.316Z,42.30
2018-11-05T03:23:47.321Z,43.03
2018-11-05T03:26:15.371Z,43.37
2018-11-05T03:28:43.354Z,41.43
2018-11-05T03:31:11.322Z,42.57
2018-11-05T03:33:39.284Z,39.73
2018-11-05T03:36:07.405Z,39.43
2018-11-05T03:38:35.389Z,43.43
2018-11-05T03:41:03.414Z,40.30
2018-11-05T03:43:31.570Z,40.23
2018-11-05T03:45:59.606Z,40.03
2018-11-05T03:48:27.505Z,41.80
2018-11-05T03:50:55.515Z,39.13
2018-11-05T03:53:23.435Z,38.73
2018-11-05T03:55:51.544Z,41.57
2018-11-05T03:58:19.524Z,41.87
2018-11-05T04:00:47.637Z,40.97
2018-11-05T04:03:15.604Z,39.90
2018-11-05T04:05:43.974Z,43.57
2018-11-05T04:08:11.930Z,41.47
2018-11-05T04:10:39.947Z,40.00
2018-11-05T04:13:07.896Z,40.40
2018-11-05T04:15:36.123Z,43.53
2018-11-05T04:18:04.015Z,43.77
2018-11-05T04:20:32.055Z,38.77
2018-11-05T04:23:00.075Z,40.63
2018-11-05T04:25:28.079Z,37.33
2018-11-05T04:27:56.131Z,39.70
2018-11-05T04:30:24.119Z,41.00
2018-11-05T04:32:52.139Z,37.33
2018-11-05T04:35:20.164Z,39.37
2018-11-05T04:37:48.564Z,41.57
2018-11-05T04:40:16.574Z,36.80
2018-11-05T04:42:44.667Z,40.57
2018-11-05T04:45:13.329Z,44.17
2018-11-05T04:47:41.988Z,45.07
2018-11-05T04:50:11.144Z,39.40
2018-11-05T04:52:40.035Z,42.00
2018-11-05T04:55:08.050Z,45.27
2018-11-05T04:57:36.129Z,39.97
2018-11-05T05:00:10.056Z,41.37
2018-11-05T05:02:39.110Z,43.20
2018-11-05T05:05:07.513Z,41.87
2018-11-05T05:07:35.597Z,42.13
2018-11-05T05:10:03.837Z,43.97
2018-11-05T05:12:31.840Z,43.00
2018-11-05T05:14:59.916Z,41.30
2018-11-05T05:17:27.998Z,44.13
2018-11-05T05:19:55.997Z,45.13
2018-11-05T05:22:24.058Z,40.93
2018-11-05T05:24:52.096Z,40.53
2018-11-05T05:27:20.137Z,43.37
2018-11-05T05:29:48.390Z,41.60
2018-11-05T05:32:16.403Z,45.23
2018-11-05T05:34:44.396Z,42.77
2018-11-05T05:37:12.860Z,43.13
2018-11-05T05:39:41.012Z,45.17
2018-11-05T05:42:09.552Z,37.97
2018-11-05T05:44:37.652Z,44.20
2018-11-05T05:47:06.005Z,39.27
2018-11-05T05:49:34.477Z,43.10
2018-11-05T05:52:02.732Z,43.50
2018-11-05T05:54:31.005Z,40.70
2018-11-05T05:56:59.272Z,44.00
2018-11-05T05:59:27.452Z,42.20
2018-11-05T06:01:55.744Z,40.87
2018-11-05T06:04:23.924Z,41.27
2018-11-05T06:06:52.114Z,45.33
2018-11-05T06:09:20.414Z,46.93
2018-11-05T06:11:48.614Z,42.30
2018-11-05T06:14:16.927Z,39.43
2018-11-05T06:16:45.126Z,42.87
2018-11-05T06:19:13.485Z,41.50
2018-11-05T06:21:41.829Z,42.17
2018-11-05T06:24:10.146Z,42.20
2018-11-05T06:26:38.326Z,42.70
2018-11-05T06:29:06.781Z,40.93
2018-11-05T06:31:35.086Z,42.13
2018-11-05T06:34:03.545Z,41.83
2018-11-05T06:36:31.879Z,44.87
2018-11-05T06:39:00.216Z,42.37
2018-11-05T06:41:28.533Z,42.77
2018-11-05T06:43:56.795Z,41.67
2018-11-05T06:46:25.061Z,41.90
2018-11-05T06:48:53.405Z,40.37
2018-11-05T06:51:21.761Z,41.57
2018-11-05T06:53:50.122Z,42.00
2018-11-05T06:56:18.280Z,38.10
2018-11-05T06:58:46.521Z,44.10
2018-11-05T07:01:14.711Z,39.87
2018-11-05T07:03:42.972Z,41.83
2018-11-05T07:06:11.111Z,41.60
2018-11-05T07:08:39.459Z,41.13
2018-11-05T07:11:07.658Z,40.87
2018-11-05T07:13:35.860Z,38.43
2018-11-05T07:16:04.119Z,38.83
2018-11-05T07:18:32.546Z,37.60
2018-11-05T07:21:00.693Z,34.33
2018-11-05T07:23:28.953Z,39.33
2018-11-05T07:25:57.175Z,41.40
2018-11-05T07:28:25.546Z,35.83
2018-11-05T07:30:53.794Z,35.60
2018-11-05T07:33:22.204Z,35.07
2018-11-05T07:35:50.354Z,35.53
2018-11-05T07:38:18.650Z,40.43
2018-11-05T07:40:46.770Z,37.60
2018-11-05T07:43:14.998Z,35.63
2018-11-05T07:45:43.258Z,39.97
2018-11-05T07:48:11.490Z,39.37
2018-11-05T07:50:39.688Z,37.13
2018-11-05T07:53:07.870Z,33.80
2018-11-05T07:55:36.058Z,37.43
2018-11-05T07:58:04.258Z,35.43
2018-11-05T08:00:37.940Z,29.53
2018-11-05T08:03:06.412Z,33.37
2018-11-05T08:05:34.653Z,36.17
2018-11-05T08:08:02.913Z,36.37
2018-11-05T08:10:31.196Z,35.53
2018-11-05T08:12:59.493Z,36.53
2018-11-05T08:15:27.913Z,38.90
2018-11-05T08:17:56.041Z,32.50
2018-11-05T08:20:24.315Z,33.93
2018-11-05T08:22:52.457Z,35.60
2018-11-05T08:25:20.693Z,37.47
2018-11-05T08:27:48.933Z,35.97
2018-11-05T08:30:22.914Z,33.37
2018-11-05T08:32:51.141Z,35.93
2018-11-05T08:35:19.361Z,36.50
2018-11-05T08:37:47.963Z,32.90
2018-11-05T08:40:19.168Z,33.30
2018-11-05T08:42:48.324Z,35.73
2018-11-05T08:45:17.758Z,34.33
2018-11-05T08:47:46.178Z,33.83
2018-11-05T08:50:15.568Z,35.03
2018-11-05T08:52:43.839Z,40.13
2018-11-05T08:55:14.410Z,35.90
2018-11-05T08:57:42.982Z,37.77
2018-11-05T09:00:20.458Z,39.43
2018-11-05T09:02:48.900Z,37.47
2018-11-05T09:05:17.200Z,32.30
2018-11-05T09:07:46.122Z,39.03
2018-11-05T09:10:14.649Z,36.17
2018-11-05T09:12:43.119Z,35.60
2018-11-05T09:15:13.800Z,39.03
2018-11-05T09:17:42.939Z,33.80
2018-11-05T09:20:12.382Z,34.20
2018-11-05T09:22:40.639Z,32.47
2018-11-05T09:25:10.379Z,32.63
2018-11-05T09:27:38.596Z,37.60
2018-11-05T09:30:10.199Z,32.83
2018-11-05T09:32:38.319Z,32.90
2018-11-05T09:35:06.780Z,34.40
2018-11-05T09:37:35.080Z,35.63
2018-11-05T09:40:03.339Z,34.07
2018-11-05T09:42:31.583Z,36.07
2018-11-05T09:44:59.899Z,31.03
2018-11-05T09:47:34.820Z,30.50
2018-11-05T09:50:03.119Z,29.83
2018-11-05T09:52:31.479Z,32.60
2018-11-05T09:54:59.658Z,26.50
2018-11-05T09:57:28.031Z,31.90
2018-11-05T09:59:56.191Z,34.53
2018-11-05T10:02:27.239Z,30.07
2018-11-05T10:04:55.679Z,34.57
2018-11-05T10:07:23.619Z,30.00
2018-11-05T10:09:51.871Z,29.83
2018-11-05T10:12:20.239Z,31.30
2018-11-05T10:14:48.380Z,30.43
2018-11-05T10:17:16.707Z,28.87
2018-11-05T10:19:44.859Z,28.87
2018-11-05T10:22:13.059Z,30.40
2018-11-05T10:24:41.280Z,30.73
2018-11-05T10:27:09.530Z,31.47
2018-11-05T10:29:37.819Z,29.30
2018-11-05T10:32:06.088Z,28.53
2018-11-05T10:34:34.283Z,31.07
2018-11-05T10:37:02.480Z,30.43
2018-11-05T10:39:30.679Z,32.03
2018-11-05T10:41:58.818Z,28.77
2018-11-05T10:44:27.019Z,29.47
2018-11-05T10:46:55.159Z,30.53
2018-11-05T10:49:23.387Z,30.57
2018-11-05T10:51:51.832Z,32.73
2018-11-05T10:54:19.959Z,29.00
2018-11-05T10:56:48.216Z,29.30
2018-11-05T10:59:16.458Z,28.50
2018-11-05T11:01:50.202Z,32.23
2018-11-05T11:04:23.765Z,28.53
2018-11-05T11:06:51.999Z,27.77
2018-11-05T11:09:20.139Z,32.67
2018-11-05T11:11:48.439Z,28.13
2018-11-05T11:14:16.638Z,27.47
2018-11-05T11:16:44.960Z,30.73
2018-11-05T11:19:13.050Z,29.20
2018-11-05T11:21:41.279Z,29.63
2018-11-05T11:24:09.606Z,27.47
2018-11-05T11:26:38.230Z,28.77
2018-11-05T11:29:06.555Z,26.90
2018-11-05T11:31:34.859Z,28.30
2018-11-05T11:34:03.138Z,26.90
2018-11-05T11:36:31.396Z,26.77
2018-11-05T11:38:59.718Z,26.90
2018-11-05T11:41:27.870Z,27.50
2018-11-05T11:43:56.132Z,26.63
2018-11-05T11:46:24.367Z,25.63
2018-11-05T11:48:52.598Z,27.17
2018-11-05T11:51:20.819Z,25.57
2018-11-05T11:53:49.046Z,23.07
2018-11-05T11:56:17.338Z,25.67
2018-11-05T11:58:45.416Z,26.67
2018-11-05T12:01:13.682Z,25.27
2018-11-05T12:03:41.731Z,28.10
2018-11-05T12:06:09.957Z,27.90
2018-11-05T12:08:38.267Z,28.83
2018-11-05T12:11:06.501Z,26.50
2018-11-05T12:13:34.675Z,24.77
2018-11-05T12:16:02.950Z,27.43
2018-11-05T12:18:31.250Z,28.13
2018-11-05T12:20:59.506Z,27.23
2018-11-05T12:23:27.758Z,26.97
2018-11-05T12:25:56.078Z,26.47
2018-11-05T12:28:24.358Z,26.40
2018-11-05T12:30:52.663Z,23.77
2018-11-05T12:33:20.838Z,27.13
2018-11-05T12:35:49.167Z,27.43
2018-11-05T12:38:17.438Z,26.77
2018-11-05T12:40:45.738Z,26.67
2018-11-05T12:43:13.927Z,27.00
2018-11-05T12:45:42.178Z,25.37
2018-11-05T12:48:10.359Z,24.37
2018-11-05T12:50:38.671Z,25.40
2018-11-05T12:53:06.878Z,28.10
2018-11-05T12:55:35.093Z,26.27
2018-11-05T12:58:03.338Z,22.53
2018-11-05T13:00:31.819Z,25.13
2018-11-05T13:03:01.001Z,24.57
2018-11-05T13:05:30.758Z,24.13
2018-11-05T13:07:59.038Z,24.03
2018-11-05T13:10:27.246Z,24.13
2018-11-05T13:12:55.587Z,22.70
2018-11-05T13:15:23.852Z,25.53
2018-11-05T13:17:52.167Z,26.73
2018-11-05T13:20:21.450Z,31.17
2018-11-05T13:22:49.738Z,25.93
2018-11-05T13:25:17.871Z,26.47
2018-11-05T13:27:47.358Z,26.43
2018-11-05T13:30:15.910Z,24.90
2018-11-05T13:32:44.543Z,24.73
2018-11-05T13:35:14.058Z,25.20
2018-11-05T13:37:42.935Z,25.57
2018-11-05T13:40:13.178Z,24.43
2018-11-05T13:42:41.438Z,29.63
2018-11-05T13:45:11.035Z,25.50
2018-11-05T13:47:40.092Z,28.20
2018-11-05T13:50:08.348Z,25.53
2018-11-05T13:52:36.854Z,25.47
2018-11-05T13:55:05.413Z,29.10
2018-11-05T13:57:33.739Z,31.53
2018-11-05T14:00:02.150Z,29.83
2018-11-05T14:02:30.583Z,27.53
2018-11-05T14:04:58.858Z,26.97
2018-11-05T14:07:28.047Z,30.07
2018-11-05T14:09:56.265Z,25.93
2018-11-05T14:12:24.619Z,27.73
2018-11-05T14:14:52.929Z,29.70
2018-11-05T14:17:21.198Z,29.93
2018-11-05T14:19:49.578Z,27.37
2018-11-05T14:22:17.826Z,24.77
2018-11-05T14:24:46.058Z,28.43
2018-11-05T14:27:14.454Z,29.67
2018-11-05T14:29:43.080Z,24.60
2018-11-05T14:32:10.858Z,25.93
2018-11-05T14:34:38.979Z,26.03
2018-11-05T14:37:07.480Z,27.17
2018-11-05T14:39:35.718Z,25.93
2018-11-05T14:42:03.926Z,27.47
2018-11-05T14:44:32.087Z,25.33
2018-11-05T14:47:00.269Z,29.77
2018-11-05T14:49:28.458Z,29.23
2018-11-05T14:51:56.619Z,29.73
2018-11-05T14:54:27.159Z,25.80
2018-11-05T14:56:56.475Z,29.60
2018-11-05T14:59:24.810Z,28.43
2018-11-05T15:02:56.907Z,30.03
2018-11-05T15:05:25.071Z,30.30
2018-11-05T15:07:53.360Z,29.17
2018-11-05T15:10:22.883Z,28.20
2018-11-05T15:12:51.318Z,28.67
2018-11-05T15:15:19.987Z,37.07
2018-11-05T15:17:48.559Z,34.13
2018-11-05T15:20:18.878Z,30.93
2018-11-05T15:22:47.261Z,31.80
2018-11-05T15:25:15.918Z,34.37
2018-11-05T15:27:44.158Z,28.97
2018-11-05T15:30:16.088Z,33.03
2018-11-05T15:32:44.523Z,32.83
2018-11-05T15:35:12.819Z,31.10
2018-11-05T15:37:41.771Z,31.37
2018-11-05T15:40:11.759Z,32.33
2018-11-05T15:42:40.119Z,35.90
2018-11-05T15:45:10.319Z,31.00
2018-11-05T15:47:39.083Z,33.67
2018-11-05T15:50:09.318Z,34.70
2018-11-05T15:52:37.721Z,32.63
2018-11-05T15:55:06.039Z,37.37
2018-11-05T15:57:34.818Z,38.77
2018-11-05T16:00:03.219Z,33.47
2018-11-05T16:02:31.411Z,36.27
2018-11-05T16:04:59.693Z,33.03
2018-11-05T16:07:27.999Z,36.07
2018-11-05T16:09:56.371Z,36.73
2018-11-05T16:12:24.451Z,30.50
2018-11-05T16:14:52.744Z,29.20
2018-11-05T16:17:21.039Z,33.83
2018-11-05T16:19:49.441Z,36.80
2018-11-05T16:22:17.619Z,36.00
2018-11-05T16:24:45.927Z,34.70
2018-11-05T16:27:14.128Z,33.67
2018-11-05T16:29:42.667Z,30.83
2018-11-05T16:32:13.529Z,36.50
2018-11-05T16:34:42.057Z,33.63
2018-11-05T16:37:10.431Z,30.47
2018-11-05T16:39:40.064Z,30.90
2018-11-05T16:42:08.448Z,34.90
2018-11-05T16:44:38.611Z,30.63
2018-11-05T16:47:07.051Z,38.13
2018-11-05T16:49:35.438Z,33.47
2018-11-05T16:52:03.830Z,32.17
2018-11-05T16:54:37.870Z,33.20
2018-11-05T16:57:13.602Z,32.17
2018-11-05T16:59:43.127Z,32.60
2018-11-05T17:02:13.508Z,33.20
2018-11-05T17:04:43.210Z,39.37
2018-11-05T17:07:12.316Z,39.63
2018-11-05T17:09:40.870Z,40.10
2018-11-05T17:12:09.317Z,42.73
2018-11-05T17:14:37.990Z,36.73
2018-11-05T17:17:06.492Z,40.77
2018-11-05T17:19:34.871Z,40.67
2018-11-05T17:22:03.450Z,38.47
2018-11-05T17:24:32.498Z,30.20
2018-11-05T17:27:00.854Z,31.40
2018-11-05T17:29:29.263Z,44.37
2018-11-05T17:31:57.965Z,40.97
2018-11-05T17:34:26.486Z,47.07
2018-11-05T17:36:54.597Z,43.23
2018-11-05T17:39:22.639Z,34.60
2018-11-05T17:41:50.739Z,36.07
2018-11-05T17:44:18.835Z,36.00
2018-11-05T17:46:46.962Z,40.53
2018-11-05T17:49:14.972Z,43.13
2018-11-05T17:51:43.053Z,45.27
2018-11-05T17:54:11.067Z,34.80
2018-11-05T17:56:39.240Z,36.83
2018-11-05T17:59:07.255Z,31.17
2018-11-05T18:01:35.316Z,39.37
2018-11-05T18:04:03.459Z,39.17
2018-11-05T18:06:31.972Z,37.87
2018-11-05T18:09:00.257Z,34.13
2018-11-05T18:11:28.248Z,32.97
2018-11-05T18:13:56.339Z,38.53
2018-11-05T18:16:24.375Z,35.47
2018-11-05T18:18:52.457Z,37.00
2018-11-05T18:21:20.486Z,40.77
2018-11-05T18:23:48.539Z,37.47
2018-11-05T18:26:16.495Z,35.73
2018-11-05T18:28:44.660Z,37.23
2018-11-05T18:31:12.840Z,39.73
2018-11-05T18:33:40.848Z,43.70
2018-11-05T18:36:08.920Z,39.20
2018-11-05T18:38:37.044Z,30.93
2018-11-05T18:41:05.506Z,27.37
2018-11-05T18:43:33.665Z,32.33
2018-11-05T18:46:01.695Z,41.93
2018-11-05T18:48:30.109Z,40.20
2018-11-05T18:50:58.186Z,38.27
2018-11-05T18:53:26.413Z,28.57
2018-11-05T18:55:54.477Z,22.40
2018-11-05T18:58:22.565Z,28.33
2018-11-05T19:00:50.665Z,37.10
2018-11-05T19:03:18.869Z,33.37
2018-11-05T19:05:47.233Z,26.47
2018-11-05T19:08:15.461Z,28.03
2018-11-05T19:10:43.700Z,35.87
2018-11-05T19:13:12.010Z,40.60
2018-11-05T19:15:41.003Z,49.40
2018-11-05T19:18:12.571Z,45.37
2018-11-05T19:20:43.439Z,60.10
2018-11-05T19:25:52.109Z,38.63
2018-11-05T19:28:23.047Z,57.67
2018-11-05T19:30:56.949Z,51.17
2018-11-05T19:33:29.731Z,58.63
2018-11-05T19:36:08.990Z,30.17
2018-11-05T19:38:44.227Z,25.57
2018-11-05T19:41:21.075Z,27.43
2018-11-05T19:43:59.062Z,28.97
2018-11-05T19:46:30.404Z,37.37
2018-11-05T19:48:59.273Z,40.27
2018-11-05T19:51:30.850Z,42.40
2018-11-05T19:57:32.264Z,52.93
2018-11-05T20:00:14.220Z,53.60
2018-11-05T20:02:44.841Z,43.93
2018-11-05T20:05:17.170Z,56.40
2018-11-05T20:07:50.146Z,52.00
2018-11-05T20:10:22.493Z,45.43
2018-11-05T20:12:57.145Z,55.63
2018-11-05T20:15:30.606Z,52.27
2018-11-05T20:18:06.820Z,37.07
2018-11-05T20:20:45.455Z,53.97
2018-11-05T20:23:18.178Z,63.03
2018-11-05T20:25:59.710Z,48.63
2018-11-05T20:28:32.382Z,37.93
2018-11-05T20:31:04.972Z,38.13
2018-11-05T20:33:39.036Z,37.40
2018-11-05T20:36:12.013Z,34.43
2018-11-05T20:38:49.528Z,41.53
2018-11-05T20:41:23.188Z,35.43
2018-11-05T20:43:56.435Z,39.17
2018-11-05T20:46:27.370Z,35.93
2018-11-05T20:49:00.359Z,23.53
2018-11-05T20:51:33.445Z,27.10
2018-11-05T20:54:07.387Z,32.17
2018-11-05T20:56:37.887Z,24.67
2018-11-05T20:59:06.017Z,31.10
2018-11-05T21:01:35.225Z,35.90
2018-11-05T21:04:03.685Z,31.90
2018-11-05T21:06:31.734Z,36.33
2018-11-05T21:08:59.741Z,36.90
2018-11-05T21:11:28.135Z,37.30
2018-11-05T21:13:56.105Z,34.67
2018-11-05T21:16:24.230Z,42.07
2018-11-05T21:18:53.243Z,45.40
2018-11-05T21:21:21.378Z,47.47
2018-11-05T21:23:50.670Z,39.70
2018-11-05T21:26:19.053Z,28.80
2018-11-05T21:28:47.072Z,42.53
2018-11-05T21:31:15.160Z,35.73
2018-11-05T21:33:43.805Z,43.43
2018-11-05T21:36:11.845Z,60.43
2018-11-05T21:38:39.872Z,53.63
2018-11-05T21:41:07.983Z,47.10
2018-11-05T21:43:35.985Z,46.77
2018-11-05T21:46:04.157Z,45.57
2018-11-05T21:48:32.273Z,38.53
2018-11-05T21:51:00.611Z,42.20
2018-11-05T21:53:28.747Z,43.63
2018-11-05T21:55:57.034Z,52.07
2018-11-05T21:58:25.029Z,44.73
2018-11-05T22:00:53.113Z,47.60
2018-11-05T22:03:21.134Z,45.47
2018-11-05T22:05:49.170Z,44.63
2018-11-05T22:08:17.108Z,45.33
2018-11-05T22:10:45.198Z,49.50
2018-11-05T22:13:13.409Z,47.07
2018-11-05T22:15:45.725Z,43.60
2018-11-05T22:18:14.636Z,68.03
2018-11-05T22:20:42.726Z,70.90
2018-11-05T22:23:10.762Z,54.57
2018-11-05T22:25:38.796Z,46.63
2018-11-05T22:28:07.050Z,44.93
2018-11-05T22:30:35.189Z,48.13
2018-11-05T22:33:03.409Z,55.27
2018-11-05T22:35:31.625Z,50.80
2018-11-05T22:37:59.813Z,57.93
2018-11-05T22:40:27.852Z,41.73
2018-11-05T22:42:55.861Z,41.03
2018-11-05T22:45:23.901Z,44.80
2018-11-05T22:47:51.950Z,50.70
2018-11-05T22:50:20.041Z,57.47
2018-11-05T22:52:48.141Z,49.97
2018-11-05T22:55:16.140Z,44.00
2018-11-05T22:57:44.132Z,49.07
2018-11-05T23:00:20.883Z,48.80
2018-11-05T23:02:54.393Z,49.53
2018-11-05T23:05:22.719Z,37.00
2018-11-05T23:07:51.704Z,33.20
2018-11-05T23:10:19.680Z,42.67
2018-11-05T23:12:47.742Z,38.40
2018-11-05T23:15:15.939Z,37.63
2018-11-05T23:17:44.066Z,37.43
2018-11-05T23:20:12.007Z,37.73
2018-11-05T23:22:40.720Z,46.10
2018-11-05T23:25:08.730Z,54.70
2018-11-05T23:27:36.843Z,57.57
2018-11-05T23:30:06.677Z,49.30
2018-11-05T23:32:34.678Z,44.03
2018-11-05T23:35:02.662Z,54.53
2018-11-05T23:37:30.882Z,52.87
2018-11-05T23:39:58.840Z,51.37
2018-11-05T23:42:26.880Z,47.77
2018-11-05T23:44:54.900Z,38.60
2018-11-05T23:47:27.060Z,36.83
2018-11-05T23:49:55.119Z,38.50
2018-11-05T23:52:23.525Z,46.17
2018-11-05T23:54:51.631Z,38.77
2018-11-05T23:57:19.636Z,48.17
2018-11-05T23:59:47.796Z,42.00
